sensor_id;sensor_type;location;lat;lon;timestamp;P1;durP1;ratioP1;P2;durP2;ratioP2
71513;SDS011;59335;46.652;21.272;2023-09-18T00:02:33;4.40;;;2.30;;
71513;SDS011;59335;46.652;21.272;2023-09-18T00:05:36;5.30;;;2.55;;
71513;SDS011;59335;46.652;21.272;2023-09-18T00:08:39;4.32;;;2.33;;
71513;SDS011;59335;46.652;21.272;2023-09-18T00:11:42;4.68;;;2.60;;
71513;SDS011;59335;46.652;21.272;2023-09-18T00:14:47;4.35;;;2.63;;
71513;SDS011;59335;46.652;21.272;2023-09-18T00:17:52;4.10;;;2.40;;
71513;SDS011;59335;46.652;21.272;2023-09-18T00:20:54;4.35;;;2.28;;
71513;SDS011;59335;46.652;21.272;2023-09-18T00:23:57;4.32;;;2.50;;
71513;SDS011;59335;46.652;21.272;2023-09-18T00:27:00;4.03;;;2.47;;
71513;SDS011;59335;46.652;21.272;2023-09-18T00:30:03;4.80;;;2.60;;
71513;SDS011;59335;46.652;21.272;2023-09-18T00:33:07;4.53;;;2.50;;
71513;SDS011;59335;46.652;21.272;2023-09-18T00:36:10;4.15;;;2.20;;
71513;SDS011;59335;46.652;21.272;2023-09-18T00:39:12;4.30;;;2.47;;
71513;SDS011;59335;46.652;21.272;2023-09-18T00:42:16;4.55;;;2.53;;
71513;SDS011;59335;46.652;21.272;2023-09-18T00:45:20;3.83;;;2.28;;
71513;SDS011;59335;46.652;21.272;2023-09-18T00:48:23;4.13;;;2.30;;
71513;SDS011;59335;46.652;21.272;2023-09-18T00:51:28;4.50;;;2.38;;
71513;SDS011;59335;46.652;21.272;2023-09-18T00:54:31;4.80;;;2.42;;
71513;SDS011;59335;46.652;21.272;2023-09-18T00:57:34;3.65;;;2.25;;
71513;SDS011;59335;46.652;21.272;2023-09-18T01:00:38;4.03;;;2.40;;
71513;SDS011;59335;46.652;21.272;2023-09-18T01:03:42;4.50;;;2.20;;
71513;SDS011;59335;46.652;21.272;2023-09-18T01:06:45;5.00;;;2.50;;
71513;SDS011;59335;46.652;21.272;2023-09-18T01:09:50;3.90;;;2.22;;
71513;SDS011;59335;46.652;21.272;2023-09-18T01:12:55;4.68;;;2.42;;
71513;SDS011;59335;46.652;21.272;2023-09-18T01:16:08;4.53;;;2.40;;
71513;SDS011;59335;46.652;21.272;2023-09-18T01:19:25;4.50;;;2.40;;
71513;SDS011;59335;46.652;21.272;2023-09-18T01:22:37;3.53;;;2.05;;
71513;SDS011;59335;46.652;21.272;2023-09-18T01:25:40;4.40;;;2.45;;
71513;SDS011;59335;46.652;21.272;2023-09-18T01:28:43;3.92;;;2.33;;
71513;SDS011;59335;46.652;21.272;2023-09-18T01:31:46;4.22;;;2.35;;
71513;SDS011;59335;46.652;21.272;2023-09-18T01:34:51;3.80;;;2.20;;
71513;SDS011;59335;46.652;21.272;2023-09-18T01:37:56;4.25;;;2.25;;
71513;SDS011;59335;46.652;21.272;2023-09-18T01:41:01;4.32;;;2.47;;
71513;SDS011;59335;46.652;21.272;2023-09-18T01:44:04;4.07;;;2.40;;
71513;SDS011;59335;46.652;21.272;2023-09-18T01:47:08;3.90;;;2.10;;
71513;SDS011;59335;46.652;21.272;2023-09-18T01:50:14;4.10;;;2.27;;
71513;SDS011;59335;46.652;21.272;2023-09-18T01:53:17;4.00;;;2.10;;
71513;SDS011;59335;46.652;21.272;2023-09-18T01:56:20;3.90;;;2.55;;
71513;SDS011;59335;46.652;21.272;2023-09-18T01:59:23;4.70;;;2.40;;
71513;SDS011;59335;46.652;21.272;2023-09-18T02:02:27;4.72;;;2.55;;
71513;SDS011;59335;46.652;21.272;2023-09-18T02:05:49;4.10;;;2.13;;
71513;SDS011;59335;46.652;21.272;2023-09-18T02:08:52;3.97;;;2.30;;
71513;SDS011;59335;46.652;21.272;2023-09-18T02:11:58;4.28;;;2.50;;
71513;SDS011;59335;46.652;21.272;2023-09-18T02:15:01;3.75;;;2.40;;
71513;SDS011;59335;46.652;21.272;2023-09-18T02:18:08;4.15;;;2.53;;
71513;SDS011;59335;46.652;21.272;2023-09-18T02:21:18;3.73;;;2.10;;
71513;SDS011;59335;46.652;21.272;2023-09-18T02:24:24;4.13;;;2.13;;
71513;SDS011;59335;46.652;21.272;2023-09-18T02:27:28;4.53;;;2.55;;
71513;SDS011;59335;46.652;21.272;2023-09-18T02:30:31;3.60;;;2.20;;
71513;SDS011;59335;46.652;21.272;2023-09-18T02:33:34;4.13;;;2.40;;
71513;SDS011;59335;46.652;21.272;2023-09-18T02:36:37;4.17;;;2.37;;
71513;SDS011;59335;46.652;21.272;2023-09-18T02:39:40;4.47;;;2.50;;
71513;SDS011;59335;46.652;21.272;2023-09-18T02:42:43;4.10;;;2.42;;
71513;SDS011;59335;46.652;21.272;2023-09-18T02:45:46;4.10;;;2.33;;
71513;SDS011;59335;46.652;21.272;2023-09-18T02:48:49;4.55;;;2.47;;
71513;SDS011;59335;46.652;21.272;2023-09-18T02:51:53;4.00;;;2.27;;
71513;SDS011;59335;46.652;21.272;2023-09-18T02:54:57;4.75;;;2.65;;
71513;SDS011;59335;46.652;21.272;2023-09-18T02:58:00;4.35;;;2.40;;
71513;SDS011;59335;46.652;21.272;2023-09-18T03:01:03;4.28;;;2.10;;
71513;SDS011;59335;46.652;21.272;2023-09-18T03:04:08;4.50;;;2.47;;
71513;SDS011;59335;46.652;21.272;2023-09-18T03:07:14;4.60;;;2.40;;
71513;SDS011;59335;46.652;21.272;2023-09-18T03:10:18;4.43;;;2.30;;
71513;SDS011;59335;46.652;21.272;2023-09-18T03:13:22;3.72;;;2.00;;
71513;SDS011;59335;46.652;21.272;2023-09-18T03:16:25;4.10;;;2.28;;
71513;SDS011;59335;46.652;21.272;2023-09-18T03:19:28;4.00;;;2.40;;
71513;SDS011;59335;46.652;21.272;2023-09-18T03:22:31;4.30;;;2.20;;
71513;SDS011;59335;46.652;21.272;2023-09-18T03:25:34;3.45;;;2.08;;
71513;SDS011;59335;46.652;21.272;2023-09-18T03:28:52;3.35;;;2.03;;
71513;SDS011;59335;46.652;21.272;2023-09-18T03:31:56;3.83;;;2.15;;
71513;SDS011;59335;46.652;21.272;2023-09-18T03:35:01;4.57;;;2.33;;
71513;SDS011;59335;46.652;21.272;2023-09-18T03:38:04;4.70;;;2.33;;
71513;SDS011;59335;46.652;21.272;2023-09-18T03:41:07;4.95;;;2.78;;
71513;SDS011;59335;46.652;21.272;2023-09-18T03:44:10;4.22;;;2.20;;
71513;SDS011;59335;46.652;21.272;2023-09-18T03:47:13;4.93;;;2.20;;
71513;SDS011;59335;46.652;21.272;2023-09-18T03:50:16;3.72;;;2.05;;
71513;SDS011;59335;46.652;21.272;2023-09-18T03:53:19;4.27;;;2.23;;
71513;SDS011;59335;46.652;21.272;2023-09-18T03:56:22;4.07;;;2.20;;
71513;SDS011;59335;46.652;21.272;2023-09-18T03:59:25;4.05;;;2.15;;
71513;SDS011;59335;46.652;21.272;2023-09-18T04:02:28;3.90;;;2.00;;
71513;SDS011;59335;46.652;21.272;2023-09-18T04:05:33;3.88;;;2.20;;
71513;SDS011;59335;46.652;21.272;2023-09-18T04:08:36;3.67;;;2.03;;
71513;SDS011;59335;46.652;21.272;2023-09-18T04:11:39;4.40;;;2.35;;
71513;SDS011;59335;46.652;21.272;2023-09-18T04:14:42;5.00;;;2.30;;
71513;SDS011;59335;46.652;21.272;2023-09-18T04:17:44;4.47;;;2.03;;
71513;SDS011;59335;46.652;21.272;2023-09-18T04:20:47;4.05;;;2.30;;
71513;SDS011;59335;46.652;21.272;2023-09-18T04:23:53;3.53;;;2.03;;
71513;SDS011;59335;46.652;21.272;2023-09-18T04:27:00;4.00;;;2.20;;
71513;SDS011;59335;46.652;21.272;2023-09-18T04:30:04;3.63;;;2.10;;
71513;SDS011;59335;46.652;21.272;2023-09-18T04:33:08;3.63;;;1.90;;
71513;SDS011;59335;46.652;21.272;2023-09-18T04:36:11;4.35;;;2.10;;
71513;SDS011;59335;46.652;21.272;2023-09-18T04:39:14;3.97;;;2.30;;
71513;SDS011;59335;46.652;21.272;2023-09-18T04:42:17;3.83;;;2.22;;
71513;SDS011;59335;46.652;21.272;2023-09-18T04:45:21;4.20;;;2.35;;
71513;SDS011;59335;46.652;21.272;2023-09-18T04:48:24;4.03;;;2.30;;
71513;SDS011;59335;46.652;21.272;2023-09-18T04:51:27;5.30;;;2.40;;
71513;SDS011;59335;46.652;21.272;2023-09-18T04:54:30;3.80;;;1.93;;
71513;SDS011;59335;46.652;21.272;2023-09-18T04:57:33;4.68;;;2.40;;
71513;SDS011;59335;46.652;21.272;2023-09-18T05:00:36;4.70;;;2.30;;
71513;SDS011;59335;46.652;21.272;2023-09-18T05:03:39;3.85;;;2.10;;
71513;SDS011;59335;46.652;21.272;2023-09-18T05:06:45;3.72;;;2.10;;
71513;SDS011;59335;46.652;21.272;2023-09-18T05:09:49;3.67;;;2.00;;
71513;SDS011;59335;46.652;21.272;2023-09-18T05:12:52;3.88;;;2.20;;
71513;SDS011;59335;46.652;21.272;2023-09-18T05:16:01;4.70;;;2.50;;
71513;SDS011;59335;46.652;21.272;2023-09-18T05:19:05;6.10;;;2.92;;
71513;SDS011;59335;46.652;21.272;2023-09-18T05:22:08;6.03;;;3.15;;
71513;SDS011;59335;46.652;21.272;2023-09-18T05:25:14;7.53;;;3.40;;
71513;SDS011;59335;46.652;21.272;2023-09-18T05:28:17;7.78;;;3.63;;
71513;SDS011;59335;46.652;21.272;2023-09-18T05:31:20;6.50;;;3.53;;
71513;SDS011;59335;46.652;21.272;2023-09-18T05:34:23;6.45;;;3.63;;
71513;SDS011;59335;46.652;21.272;2023-09-18T05:37:26;6.68;;;4.10;;
71513;SDS011;59335;46.652;21.272;2023-09-18T05:40:28;11.80;;;4.13;;
71513;SDS011;59335;46.652;21.272;2023-09-18T05:43:31;9.23;;;3.95;;
71513;SDS011;59335;46.652;21.272;2023-09-18T05:46:35;9.75;;;4.30;;
71513;SDS011;59335;46.652;21.272;2023-09-18T05:49:41;9.88;;;3.95;;
71513;SDS011;59335;46.652;21.272;2023-09-18T05:52:43;7.55;;;3.90;;
71513;SDS011;59335;46.652;21.272;2023-09-18T05:55:51;6.90;;;4.10;;
71513;SDS011;59335;46.652;21.272;2023-09-18T05:58:55;7.18;;;4.15;;
71513;SDS011;59335;46.652;21.272;2023-09-18T06:01:58;8.30;;;4.60;;
71513;SDS011;59335;46.652;21.272;2023-09-18T06:05:02;7.63;;;4.03;;
71513;SDS011;59335;46.652;21.272;2023-09-18T06:08:07;7.15;;;4.53;;
71513;SDS011;59335;46.652;21.272;2023-09-18T06:11:10;6.53;;;4.00;;
71513;SDS011;59335;46.652;21.272;2023-09-18T06:14:13;9.05;;;4.20;;
71513;SDS011;59335;46.652;21.272;2023-09-18T06:17:15;8.93;;;4.68;;
71513;SDS011;59335;46.652;21.272;2023-09-18T06:20:23;7.13;;;3.88;;
71513;SDS011;59335;46.652;21.272;2023-09-18T06:23:26;7.30;;;4.00;;
71513;SDS011;59335;46.652;21.272;2023-09-18T06:26:30;8.83;;;4.20;;
71513;SDS011;59335;46.652;21.272;2023-09-18T06:29:33;7.15;;;3.90;;
71513;SDS011;59335;46.652;21.272;2023-09-18T06:32:37;7.68;;;4.03;;
71513;SDS011;59335;46.652;21.272;2023-09-18T06:35:40;6.80;;;4.00;;
71513;SDS011;59335;46.652;21.272;2023-09-18T06:38:44;7.97;;;4.05;;
71513;SDS011;59335;46.652;21.272;2023-09-18T06:41:47;8.27;;;4.13;;
71513;SDS011;59335;46.652;21.272;2023-09-18T06:44:50;6.88;;;4.25;;
71513;SDS011;59335;46.652;21.272;2023-09-18T06:47:56;6.88;;;3.90;;
71513;SDS011;59335;46.652;21.272;2023-09-18T06:51:00;7.38;;;3.83;;
71513;SDS011;59335;46.652;21.272;2023-09-18T06:54:03;7.63;;;3.80;;
71513;SDS011;59335;46.652;21.272;2023-09-18T06:57:07;8.97;;;4.50;;
71513;SDS011;59335;46.652;21.272;2023-09-18T07:00:12;9.10;;;4.00;;
71513;SDS011;59335;46.652;21.272;2023-09-18T07:03:19;9.07;;;4.05;;
71513;SDS011;59335;46.652;21.272;2023-09-18T07:06:24;7.72;;;3.83;;
71513;SDS011;59335;46.652;21.272;2023-09-18T07:09:27;10.85;;;4.22;;
71513;SDS011;59335;46.652;21.272;2023-09-18T07:12:32;8.20;;;4.10;;
71513;SDS011;59335;46.652;21.272;2023-09-18T07:15:36;6.30;;;3.65;;
71513;SDS011;59335;46.652;21.272;2023-09-18T07:18:39;7.20;;;4.10;;
71513;SDS011;59335;46.652;21.272;2023-09-18T07:21:42;7.78;;;4.30;;
71513;SDS011;59335;46.652;21.272;2023-09-18T07:24:48;9.40;;;3.95;;
71513;SDS011;59335;46.652;21.272;2023-09-18T07:27:51;6.67;;;4.20;;
71513;SDS011;59335;46.652;21.272;2023-09-18T07:30:54;8.52;;;4.20;;
71513;SDS011;59335;46.652;21.272;2023-09-18T07:33:57;8.20;;;3.97;;
71513;SDS011;59335;46.652;21.272;2023-09-18T07:37:01;8.38;;;4.20;;
71513;SDS011;59335;46.652;21.272;2023-09-18T07:40:04;7.45;;;4.35;;
71513;SDS011;59335;46.652;21.272;2023-09-18T07:43:14;7.47;;;4.30;;
71513;SDS011;59335;46.652;21.272;2023-09-18T07:46:17;8.35;;;4.40;;
71513;SDS011;59335;46.652;21.272;2023-09-18T07:49:23;9.50;;;4.00;;
71513;SDS011;59335;46.652;21.272;2023-09-18T07:52:27;6.97;;;4.00;;
71513;SDS011;59335;46.652;21.272;2023-09-18T07:55:31;7.65;;;4.40;;
71513;SDS011;59335;46.652;21.272;2023-09-18T07:58:35;8.73;;;4.00;;
71513;SDS011;59335;46.652;21.272;2023-09-18T08:01:42;7.90;;;4.40;;
71513;SDS011;59335;46.652;21.272;2023-09-18T08:04:49;7.72;;;3.90;;
71513;SDS011;59335;46.652;21.272;2023-09-18T08:07:54;7.95;;;3.90;;
71513;SDS011;59335;46.652;21.272;2023-09-18T08:11:04;8.40;;;4.15;;
71513;SDS011;59335;46.652;21.272;2023-09-18T08:14:11;6.70;;;4.10;;
71513;SDS011;59335;46.652;21.272;2023-09-18T08:17:14;7.05;;;4.28;;
71513;SDS011;59335;46.652;21.272;2023-09-18T08:20:19;7.65;;;4.03;;
71513;SDS011;59335;46.652;21.272;2023-09-18T08:23:25;7.20;;;3.92;;
71513;SDS011;59335;46.652;21.272;2023-09-18T08:26:29;6.72;;;4.03;;
71513;SDS011;59335;46.652;21.272;2023-09-18T08:29:33;8.47;;;4.10;;
71513;SDS011;59335;46.652;21.272;2023-09-18T08:32:37;6.75;;;3.80;;
71513;SDS011;59335;46.652;21.272;2023-09-18T08:35:40;8.05;;;4.00;;
71513;SDS011;59335;46.652;21.272;2023-09-18T08:38:43;8.23;;;4.07;;
71513;SDS011;59335;46.652;21.272;2023-09-18T08:41:47;7.47;;;4.28;;
71513;SDS011;59335;46.652;21.272;2023-09-18T08:44:53;7.20;;;4.10;;
71513;SDS011;59335;46.652;21.272;2023-09-18T08:47:58;12.85;;;4.00;;
71513;SDS011;59335;46.652;21.272;2023-09-18T08:51:24;7.57;;;3.88;;
71513;SDS011;59335;46.652;21.272;2023-09-18T08:54:32;7.28;;;4.13;;
71513;SDS011;59335;46.652;21.272;2023-09-18T08:57:36;6.63;;;3.90;;
71513;SDS011;59335;46.652;21.272;2023-09-18T09:00:49;7.50;;;4.03;;
71513;SDS011;59335;46.652;21.272;2023-09-18T09:03:52;9.23;;;4.05;;
71513;SDS011;59335;46.652;21.272;2023-09-18T09:06:58;8.43;;;4.00;;
71513;SDS011;59335;46.652;21.272;2023-09-18T09:10:01;6.00;;;3.83;;
71513;SDS011;59335;46.652;21.272;2023-09-18T09:13:04;7.30;;;3.83;;
71513;SDS011;59335;46.652;21.272;2023-09-18T09:16:12;8.23;;;3.63;;
71513;SDS011;59335;46.652;21.272;2023-09-18T09:19:16;8.95;;;4.28;;
71513;SDS011;59335;46.652;21.272;2023-09-18T09:22:21;8.70;;;4.13;;
71513;SDS011;59335;46.652;21.272;2023-09-18T09:25:28;8.77;;;3.95;;
71513;SDS011;59335;46.652;21.272;2023-09-18T09:28:37;7.70;;;3.90;;
71513;SDS011;59335;46.652;21.272;2023-09-18T09:31:39;6.37;;;3.90;;
71513;SDS011;59335;46.652;21.272;2023-09-18T09:34:43;6.72;;;3.67;;
71513;SDS011;59335;46.652;21.272;2023-09-18T09:37:46;7.15;;;3.65;;
71513;SDS011;59335;46.652;21.272;2023-09-18T09:40:49;5.85;;;3.60;;
71513;SDS011;59335;46.652;21.272;2023-09-18T09:43:54;7.00;;;3.67;;
71513;SDS011;59335;46.652;21.272;2023-09-18T09:46:59;7.23;;;3.90;;
71513;SDS011;59335;46.652;21.272;2023-09-18T09:50:09;8.63;;;4.07;;
71513;SDS011;59335;46.652;21.272;2023-09-18T09:53:12;7.63;;;4.50;;
71513;SDS011;59335;46.652;21.272;2023-09-18T09:56:16;10.65;;;3.95;;
71513;SDS011;59335;46.652;21.272;2023-09-18T09:59:26;7.38;;;4.07;;
71513;SDS011;59335;46.652;21.272;2023-09-18T10:02:32;7.93;;;4.10;;
71513;SDS011;59335;46.652;21.272;2023-09-18T10:05:42;7.68;;;3.83;;
71513;SDS011;59335;46.652;21.272;2023-09-18T10:08:46;9.73;;;4.32;;
71513;SDS011;59335;46.652;21.272;2023-09-18T10:11:51;8.68;;;4.13;;
71513;SDS011;59335;46.652;21.272;2023-09-18T10:14:56;9.27;;;4.50;;
71513;SDS011;59335;46.652;21.272;2023-09-18T10:18:09;8.73;;;3.90;;
71513;SDS011;59335;46.652;21.272;2023-09-18T10:21:26;8.57;;;4.43;;
71513;SDS011;59335;46.652;21.272;2023-09-18T10:24:40;6.38;;;3.67;;
71513;SDS011;59335;46.652;21.272;2023-09-18T10:27:47;7.72;;;4.10;;
71513;SDS011;59335;46.652;21.272;2023-09-18T10:30:57;8.98;;;4.28;;
71513;SDS011;59335;46.652;21.272;2023-09-18T10:34:02;8.17;;;4.07;;
71513;SDS011;59335;46.652;21.272;2023-09-18T10:37:07;8.30;;;4.05;;
71513;SDS011;59335;46.652;21.272;2023-09-18T10:40:10;7.25;;;4.22;;
71513;SDS011;59335;46.652;21.272;2023-09-18T10:43:15;7.47;;;4.00;;
71513;SDS011;59335;46.652;21.272;2023-09-18T10:46:19;8.07;;;4.50;;
71513;SDS011;59335;46.652;21.272;2023-09-18T10:49:24;7.40;;;4.50;;
71513;SDS011;59335;46.652;21.272;2023-09-18T10:52:27;7.65;;;4.18;;
71513;SDS011;59335;46.652;21.272;2023-09-18T10:55:33;9.18;;;4.22;;
71513;SDS011;59335;46.652;21.272;2023-09-18T10:58:37;9.98;;;4.70;;
71513;SDS011;59335;46.652;21.272;2023-09-18T11:01:41;8.48;;;4.63;;
71513;SDS011;59335;46.652;21.272;2023-09-18T11:04:48;7.63;;;4.30;;
71513;SDS011;59335;46.652;21.272;2023-09-18T11:08:23;8.18;;;4.65;;
71513;SDS011;59335;46.652;21.272;2023-09-18T11:11:30;8.45;;;4.72;;
71513;SDS011;59335;46.652;21.272;2023-09-18T11:14:49;10.25;;;4.00;;
71513;SDS011;59335;46.652;21.272;2023-09-18T11:18:00;7.53;;;4.60;;
71513;SDS011;59335;46.652;21.272;2023-09-18T11:21:14;8.47;;;4.47;;
71513;SDS011;59335;46.652;21.272;2023-09-18T11:24:22;7.68;;;4.53;;
71513;SDS011;59335;46.652;21.272;2023-09-18T11:27:26;9.10;;;4.00;;
71513;SDS011;59335;46.652;21.272;2023-09-18T11:30:50;8.52;;;4.22;;
71513;SDS011;59335;46.652;21.272;2023-09-18T11:34:10;8.23;;;4.20;;
71513;SDS011;59335;46.652;21.272;2023-09-18T11:37:20;7.23;;;4.20;;
71513;SDS011;59335;46.652;21.272;2023-09-18T11:40:31;7.32;;;4.10;;
71513;SDS011;59335;46.652;21.272;2023-09-18T11:43:40;8.93;;;4.47;;
71513;SDS011;59335;46.652;21.272;2023-09-18T11:46:46;8.32;;;4.10;;
71513;SDS011;59335;46.652;21.272;2023-09-18T11:49:56;9.07;;;4.43;;
71513;SDS011;59335;46.652;21.272;2023-09-18T11:53:04;7.63;;;3.80;;
71513;SDS011;59335;46.652;21.272;2023-09-18T11:56:10;9.68;;;4.10;;
71513;SDS011;59335;46.652;21.272;2023-09-18T11:59:36;8.40;;;4.32;;
71513;SDS011;59335;46.652;21.272;2023-09-18T12:02:48;7.93;;;4.28;;
71513;SDS011;59335;46.652;21.272;2023-09-18T12:06:01;7.18;;;3.92;;
71513;SDS011;59335;46.652;21.272;2023-09-18T12:09:08;7.70;;;4.33;;
71513;SDS011;59335;46.652;21.272;2023-09-18T12:12:13;9.07;;;4.50;;
71513;SDS011;59335;46.652;21.272;2023-09-18T12:15:18;6.30;;;3.90;;
71513;SDS011;59335;46.652;21.272;2023-09-18T12:18:23;6.20;;;3.97;;
71513;SDS011;59335;46.652;21.272;2023-09-18T12:21:32;7.55;;;4.30;;
71513;SDS011;59335;46.652;21.272;2023-09-18T12:24:42;6.50;;;3.90;;
71513;SDS011;59335;46.652;21.272;2023-09-18T12:27:51;7.13;;;4.20;;
71513;SDS011;59335;46.652;21.272;2023-09-18T12:30:57;6.60;;;3.90;;
71513;SDS011;59335;46.652;21.272;2023-09-18T12:34:01;8.73;;;4.10;;
71513;SDS011;59335;46.652;21.272;2023-09-18T12:37:04;8.48;;;4.00;;
71513;SDS011;59335;46.652;21.272;2023-09-18T12:40:25;9.60;;;3.87;;
71513;SDS011;59335;46.652;21.272;2023-09-18T12:43:29;6.30;;;3.83;;
71513;SDS011;59335;46.652;21.272;2023-09-18T12:46:35;8.75;;;4.35;;
71513;SDS011;59335;46.652;21.272;2023-09-18T12:49:40;7.22;;;3.90;;
71513;SDS011;59335;46.652;21.272;2023-09-18T12:52:43;7.25;;;4.10;;
71513;SDS011;59335;46.652;21.272;2023-09-18T12:55:47;7.80;;;3.80;;
71513;SDS011;59335;46.652;21.272;2023-09-18T12:58:51;7.70;;;3.90;;
71513;SDS011;59335;46.652;21.272;2023-09-18T13:02:15;7.78;;;3.92;;
71513;SDS011;59335;46.652;21.272;2023-09-18T13:05:22;7.05;;;3.67;;
71513;SDS011;59335;46.652;21.272;2023-09-18T13:08:29;6.75;;;3.95;;
71513;SDS011;59335;46.652;21.272;2023-09-18T13:11:32;6.90;;;3.83;;
71513;SDS011;59335;46.652;21.272;2023-09-18T13:18:11;7.82;;;4.05;;
71513;SDS011;59335;46.652;21.272;2023-09-18T13:21:15;8.35;;;3.80;;
71513;SDS011;59335;46.652;21.272;2023-09-18T13:24:29;8.15;;;4.22;;
71513;SDS011;59335;46.652;21.272;2023-09-18T13:27:33;9.33;;;4.17;;
71513;SDS011;59335;46.652;21.272;2023-09-18T13:30:40;7.55;;;4.20;;
71513;SDS011;59335;46.652;21.272;2023-09-18T13:33:45;8.18;;;3.90;;
71513;SDS011;59335;46.652;21.272;2023-09-18T13:36:54;8.73;;;3.95;;
71513;SDS011;59335;46.652;21.272;2023-09-18T13:39:58;7.95;;;4.28;;
71513;SDS011;59335;46.652;21.272;2023-09-18T13:43:06;7.50;;;4.30;;
71513;SDS011;59335;46.652;21.272;2023-09-18T13:46:11;7.22;;;4.28;;
71513;SDS011;59335;46.652;21.272;2023-09-18T13:49:15;7.40;;;4.13;;
71513;SDS011;59335;46.652;21.272;2023-09-18T13:52:18;7.35;;;4.50;;
71513;SDS011;59335;46.652;21.272;2023-09-18T13:55:22;7.43;;;4.40;;
71513;SDS011;59335;46.652;21.272;2023-09-18T13:58:25;9.20;;;4.20;;
71513;SDS011;59335;46.652;21.272;2023-09-18T14:01:28;7.07;;;4.13;;
71513;SDS011;59335;46.652;21.272;2023-09-18T14:04:31;8.30;;;3.95;;
71513;SDS011;59335;46.652;21.272;2023-09-18T14:07:35;6.30;;;3.97;;
71513;SDS011;59335;46.652;21.272;2023-09-18T14:10:40;8.27;;;4.18;;
71513;SDS011;59335;46.652;21.272;2023-09-18T14:13:45;8.37;;;4.30;;
71513;SDS011;59335;46.652;21.272;2023-09-18T14:16:49;8.73;;;3.97;;
71513;SDS011;59335;46.652;21.272;2023-09-18T14:19:59;8.77;;;4.22;;
71513;SDS011;59335;46.652;21.272;2023-09-18T14:23:02;10.38;;;4.28;;
71513;SDS011;59335;46.652;21.272;2023-09-18T14:26:05;7.75;;;3.92;;
71513;SDS011;59335;46.652;21.272;2023-09-18T14:29:10;8.50;;;3.80;;
71513;SDS011;59335;46.652;21.272;2023-09-18T14:32:13;6.32;;;3.90;;
71513;SDS011;59335;46.652;21.272;2023-09-18T14:35:16;13.43;;;4.43;;
71513;SDS011;59335;46.652;21.272;2023-09-18T14:38:19;13.18;;;4.40;;
71513;SDS011;59335;46.652;21.272;2023-09-18T14:41:22;19.02;;;4.65;;
71513;SDS011;59335;46.652;21.272;2023-09-18T14:44:27;12.03;;;4.20;;
71513;SDS011;59335;46.652;21.272;2023-09-18T14:47:30;11.10;;;4.68;;
71513;SDS011;59335;46.652;21.272;2023-09-18T14:50:33;14.05;;;4.20;;
71513;SDS011;59335;46.652;21.272;2023-09-18T14:53:37;9.18;;;4.40;;
71513;SDS011;59335;46.652;21.272;2023-09-18T14:56:41;11.25;;;4.60;;
71513;SDS011;59335;46.652;21.272;2023-09-18T14:59:44;15.93;;;4.60;;
71513;SDS011;59335;46.652;21.272;2023-09-18T15:02:50;12.82;;;4.75;;
71513;SDS011;59335;46.652;21.272;2023-09-18T15:05:54;15.05;;;4.90;;
71513;SDS011;59335;46.652;21.272;2023-09-18T15:08:58;11.98;;;4.53;;
71513;SDS011;59335;46.652;21.272;2023-09-18T15:12:01;13.30;;;4.90;;
71513;SDS011;59335;46.652;21.272;2023-09-18T15:15:06;13.53;;;4.43;;
71513;SDS011;59335;46.652;21.272;2023-09-18T15:18:10;15.13;;;4.75;;
71513;SDS011;59335;46.652;21.272;2023-09-18T15:21:13;14.18;;;4.82;;
71513;SDS011;59335;46.652;21.272;2023-09-18T15:24:16;14.50;;;4.80;;
71513;SDS011;59335;46.652;21.272;2023-09-18T15:27:21;12.40;;;4.50;;
71513;SDS011;59335;46.652;21.272;2023-09-18T15:30:24;10.83;;;4.33;;
71513;SDS011;59335;46.652;21.272;2023-09-18T15:33:29;10.90;;;4.30;;
71513;SDS011;59335;46.652;21.272;2023-09-18T15:36:32;12.77;;;4.80;;
71513;SDS011;59335;46.652;21.272;2023-09-18T15:39:35;12.07;;;4.50;;
71513;SDS011;59335;46.652;21.272;2023-09-18T15:42:38;11.57;;;4.10;;
71513;SDS011;59335;46.652;21.272;2023-09-18T15:45:42;13.20;;;4.20;;
71513;SDS011;59335;46.652;21.272;2023-09-18T15:48:46;13.07;;;4.22;;
71513;SDS011;59335;46.652;21.272;2023-09-18T15:51:49;13.57;;;4.50;;
71513;SDS011;59335;46.652;21.272;2023-09-18T15:54:52;8.93;;;4.28;;
71513;SDS011;59335;46.652;21.272;2023-09-18T15:57:56;14.15;;;4.28;;
71513;SDS011;59335;46.652;21.272;2023-09-18T16:00:59;11.13;;;4.30;;
71513;SDS011;59335;46.652;21.272;2023-09-18T16:04:05;11.90;;;4.25;;
71513;SDS011;59335;46.652;21.272;2023-09-18T16:07:09;14.00;;;4.47;;
71513;SDS011;59335;46.652;21.272;2023-09-18T16:10:15;11.05;;;4.70;;
71513;SDS011;59335;46.652;21.272;2023-09-18T16:13:19;11.50;;;4.10;;
71513;SDS011;59335;46.652;21.272;2023-09-18T16:16:23;13.27;;;4.20;;
71513;SDS011;59335;46.652;21.272;2023-09-18T16:19:27;9.95;;;4.13;;
71513;SDS011;59335;46.652;21.272;2023-09-18T16:22:30;13.35;;;4.75;;
71513;SDS011;59335;46.652;21.272;2023-09-18T16:25:33;8.85;;;4.00;;
71513;SDS011;59335;46.652;21.272;2023-09-18T16:28:36;8.60;;;4.47;;
71513;SDS011;59335;46.652;21.272;2023-09-18T16:31:39;11.17;;;4.27;;
71513;SDS011;59335;46.652;21.272;2023-09-18T16:34:42;12.68;;;4.70;;
71513;SDS011;59335;46.652;21.272;2023-09-18T16:37:45;11.38;;;4.70;;
71513;SDS011;59335;46.652;21.272;2023-09-18T16:40:49;11.73;;;4.30;;
71513;SDS011;59335;46.652;21.272;2023-09-18T16:43:53;13.93;;;4.70;;
71513;SDS011;59335;46.652;21.272;2023-09-18T16:46:56;7.83;;;4.20;;
71513;SDS011;59335;46.652;21.272;2023-09-18T16:49:59;10.18;;;4.50;;
71513;SDS011;59335;46.652;21.272;2023-09-18T16:53:03;10.93;;;4.35;;
71513;SDS011;59335;46.652;21.272;2023-09-18T16:56:08;8.95;;;4.00;;
71513;SDS011;59335;46.652;21.272;2023-09-18T16:59:12;12.75;;;4.10;;
71513;SDS011;59335;46.652;21.272;2023-09-18T17:02:17;8.63;;;4.43;;
71513;SDS011;59335;46.652;21.272;2023-09-18T17:05:22;10.07;;;4.20;;
71513;SDS011;59335;46.652;21.272;2023-09-18T17:08:27;8.73;;;3.85;;
71513;SDS011;59335;46.652;21.272;2023-09-18T17:11:30;11.55;;;4.95;;
71513;SDS011;59335;46.652;21.272;2023-09-18T17:14:35;11.95;;;4.28;;
71513;SDS011;59335;46.652;21.272;2023-09-18T17:17:43;10.47;;;3.90;;
71513;SDS011;59335;46.652;21.272;2023-09-18T17:20:50;9.52;;;4.05;;
71513;SDS011;59335;46.652;21.272;2023-09-18T17:23:58;9.68;;;4.22;;
71513;SDS011;59335;46.652;21.272;2023-09-18T17:27:07;9.70;;;4.13;;
71513;SDS011;59335;46.652;21.272;2023-09-18T17:30:12;13.18;;;3.88;;
71513;SDS011;59335;46.652;21.272;2023-09-18T17:33:19;12.07;;;3.80;;
71513;SDS011;59335;46.652;21.272;2023-09-18T17:36:24;8.50;;;4.15;;
71513;SDS011;59335;46.652;21.272;2023-09-18T17:39:31;8.98;;;4.00;;
71513;SDS011;59335;46.652;21.272;2023-09-18T17:42:40;8.18;;;3.90;;
71513;SDS011;59335;46.652;21.272;2023-09-18T17:45:45;11.75;;;4.35;;
71513;SDS011;59335;46.652;21.272;2023-09-18T17:48:50;11.23;;;4.00;;
71513;SDS011;59335;46.652;21.272;2023-09-18T17:51:57;8.88;;;4.00;;
71513;SDS011;59335;46.652;21.272;2023-09-18T17:55:06;9.68;;;3.80;;
71513;SDS011;59335;46.652;21.272;2023-09-18T17:58:15;9.23;;;4.18;;
71513;SDS011;59335;46.652;21.272;2023-09-18T18:01:21;10.23;;;3.85;;
71513;SDS011;59335;46.652;21.272;2023-09-18T18:04:27;7.53;;;3.33;;
71513;SDS011;59335;46.652;21.272;2023-09-18T18:07:31;8.82;;;4.20;;
71513;SDS011;59335;46.652;21.272;2023-09-18T18:10:35;8.40;;;4.00;;
71513;SDS011;59335;46.652;21.272;2023-09-18T18:13:38;7.13;;;4.05;;
71513;SDS011;59335;46.652;21.272;2023-09-18T18:16:42;8.45;;;3.97;;
71513;SDS011;59335;46.652;21.272;2023-09-18T18:19:46;6.90;;;3.70;;
71513;SDS011;59335;46.652;21.272;2023-09-18T18:22:52;11.63;;;4.35;;